Time;durP1;ratioP1;P1;durP2;ratioP2;P2;SDS_P1;SDS_P2;PMS_P1;PMS_P2;Temp;Humidity;BMP_temperature;BMP_pressure;BME280_temperature;BME280_humidity;BME280_pressure;Samples;Min_cycle;Max_cycle;Signal;HPM_P1;HPM_P2
2022/11/24 00:01:22;;;;;;;20.65;6.63;;;7.20;99.90;;;;;;5015432;28;20034;-79
2022/11/24 00:03:58;;;;;;;18.05;6.45;;;7.20;99.90;;;;;;5017392;28;20407;-79
2022/11/24 00:06:25;;;;;;;21.85;6.20;;;7.20;99.90;;;;;;5026584;28;20493;-79
2022/11/24 00:08:51;;;;;;;20.67;6.50;;;7.10;99.90;;;;;;5005905;28;20045;-79
2022/11/24 00:11:26;;;;;;;26.05;6.80;;;7.20;99.90;;;;;;5016633;28;20383;-79
2022/11/24 00:13:52;;;;;;;16.27;6.38;;;7.20;99.90;;;;;;5018093;28;20760;-79
2022/11/24 00:16:24;;;;;;;18.70;6.32;;;7.10;99.90;;;;;;5018328;28;20433;-80
2022/11/24 00:18:52;;;;;;;20.98;6.38;;;7.10;99.90;;;;;;5017290;28;20049;-81
2022/11/24 00:21:18;;;;;;;19.70;5.75;;;7.10;99.90;;;;;;5024728;28;20040;-79
2022/11/24 00:23:45;;;;;;;21.08;6.05;;;7.10;99.90;;;;;;5028086;28;20044;-80
2022/11/24 00:26:16;;;;;;;17.95;6.07;;;7.10;99.90;;;;;;5018335;28;20033;-79
2022/11/24 00:28:43;;;;;;;17.42;5.63;;;7.10;99.90;;;;;;5019149;28;20596;-79
2022/11/24 00:31:17;;;;;;;15.43;5.68;;;7.10;99.90;;;;;;5009859;28;20517;-79
2022/11/24 00:33:42;;;;;;;19.48;5.18;;;7.10;99.90;;;;;;5026643;28;20048;-81
2022/11/24 00:36:08;;;;;;;21.75;5.18;;;7.10;99.90;;;;;;5044420;28;20045;-79
2022/11/24 00:38:34;;;;;;;20.02;5.38;;;7.00;99.90;;;;;;5031331;28;20089;-79
2022/11/24 00:40:59;;;;;;;16.65;5.65;;;7.10;99.90;;;;;;5024673;28;20033;-79
2022/11/24 00:43:25;;;;;;;16.38;4.72;;;7.10;99.90;;;;;;5027324;28;20045;-80
2022/11/24 00:45:50;;;;;;;22.35;5.15;;;7.10;99.90;;;;;;5021023;28;20038;-81
2022/11/24 00:48:16;;;;;;;24.83;5.88;;;7.10;99.90;;;;;;5029452;28;20052;-79
2022/11/24 00:50:42;;;;;;;30.23;5.90;;;7.10;99.90;;;;;;5050018;28;20048;-80
2022/11/24 00:53:07;;;;;;;18.08;4.95;;;7.10;99.90;;;;;;5036974;28;20079;-79
2022/11/24 00:55:33;;;;;;;23.98;5.72;;;7.10;99.90;;;;;;5008954;28;20033;-79
2022/11/24 00:57:59;;;;;;;25.02;6.20;;;7.10;99.90;;;;;;5024806;28;20537;-79
2022/11/24 01:00:25;;;;;;;15.90;4.75;;;7.10;99.90;;;;;;5024861;28;20025;-79
2022/11/24 01:02:51;;;;;;;25.73;5.90;;;7.10;99.90;;;;;;5022132;28;20041;-80
2022/11/24 01:05:17;;;;;;;21.67;4.55;;;7.20;99.90;;;;;;5023054;28;20029;-79
2022/11/24 01:07:43;;;;;;;22.05;5.97;;;7.20;99.90;;;;;;5022527;28;20030;-80
2022/11/24 01:10:08;;;;;;;28.63;5.85;;;7.20;99.90;;;;;;5028164;28;20033;-79
2022/11/24 01:12:34;;;;;;;26.13;5.10;;;7.20;99.90;;;;;;5023114;28;20037;-80
2022/11/24 01:15:00;;;;;;;25.30;4.53;;;7.20;99.90;;;;;;5033727;28;20067;-80
2022/11/24 01:17:26;;;;;;;25.50;5.13;;;7.20;99.90;;;;;;5005834;28;20041;-81
2022/11/24 01:19:51;;;;;;;22.20;5.20;;;7.30;99.90;;;;;;5031116;28;20042;-81
2022/11/24 01:22:17;;;;;;;21.17;4.80;;;7.30;99.90;;;;;;5012144;28;20038;-80
2022/11/24 01:24:44;;;;;;;24.95;5.28;;;7.30;99.90;;;;;;5006044;28;20037;-79
2022/11/24 01:27:10;;;;;;;28.80;5.10;;;7.30;99.90;;;;;;5028616;28;20119;-81
2022/11/24 01:29:36;;;;;;;20.30;5.05;;;7.30;99.90;;;;;;5032518;28;20071;-79
2022/11/24 01:32:01;;;;;;;23.40;5.18;;;7.30;99.90;;;;;;5022476;28;20048;-79
2022/11/24 01:34:27;;;;;;;21.90;4.60;;;7.30;99.90;;;;;;5014003;28;20121;-79
2022/11/24 01:36:52;;;;;;;30.33;4.90;;;7.30;99.90;;;;;;5023304;28;20041;-80
2022/11/24 01:39:18;;;;;;;23.02;5.43;;;7.30;99.90;;;;;;5015428;28;20084;-82
2022/11/24 01:41:44;;;;;;;19.10;5.13;;;7.30;99.90;;;;;;5033272;28;20041;-80
2022/11/24 01:44:40;;;;;;;23.15;4.50;;;7.30;99.90;;;;;;5023744;28;20101;-80
2022/11/24 01:47:31;;;;;;;23.38;4.63;;;7.30;99.90;;;;;;5005978;28;20049;-80
2022/11/24 01:50:00;;;;;;;25.13;5.45;;;7.40;99.90;;;;;;5022293;28;20037;-80
2022/11/24 01:52:39;;;;;;;20.67;5.05;;;7.40;99.90;;;;;;5033146;28;20051;-79
2022/11/24 01:55:14;;;;;;;28.75;5.05;;;7.40;99.90;;;;;;5013465;28;20430;-81
2022/11/24 01:58:03;;;;;;;23.60;5.13;;;7.40;99.90;;;;;;5024364;28;20047;-79
2022/11/24 02:00:28;;;;;;;18.58;4.47;;;7.50;99.90;;;;;;5039017;28;20033;-79
2022/11/24 02:02:56;;;;;;;24.13;4.78;;;7.50;99.90;;;;;;5012791;28;20069;-80
2022/11/24 02:05:49;;;;;;;21.58;4.88;;;7.50;99.90;;;;;;5022694;28;20044;-80
2022/11/24 02:08:28;;;;;;;24.08;5.47;;;7.60;99.90;;;;;;5024561;28;20041;-79
2022/11/24 02:10:55;;;;;;;23.70;4.30;;;7.60;99.90;;;;;;5020523;28;20053;-79
2022/11/24 02:13:22;;;;;;;29.42;5.68;;;7.60;99.90;;;;;;5021560;28;20037;-79
2022/11/24 02:15:47;;;;;;;24.42;4.60;;;7.70;99.90;;;;;;5023423;28;20045;-79
2022/11/24 02:18:13;;;;;;;17.08;4.60;;;7.70;99.90;;;;;;5022971;28;20042;-81
2022/11/24 02:20:39;;;;;;;21.25;5.03;;;7.70;99.90;;;;;;5030644;28;20037;-79
2022/11/24 02:23:17;;;;;;;18.88;4.32;;;7.80;99.90;;;;;;4998324;28;20037;-79
2022/11/24 02:26:09;;;;;;;19.88;5.05;;;7.80;99.90;;;;;;5020384;28;20102;-80
2022/11/24 02:28:34;;;;;;;24.75;4.22;;;7.70;99.90;;;;;;5008070;28;20051;-81
2022/11/24 02:31:01;;;;;;;17.85;4.20;;;7.70;99.90;;;;;;5031603;28;20072;-80
2022/11/24 02:33:27;;;;;;;23.45;4.43;;;7.70;99.90;;;;;;5030659;28;20073;-83
2022/11/24 02:35:53;;;;;;;21.58;4.82;;;7.70;99.90;;;;;;5008090;28;20034;-80
2022/11/24 02:38:28;;;;;;;20.20;3.88;;;7.70;99.90;;;;;;5038406;28;20048;-79
2022/11/24 02:40:54;;;;;;;19.73;4.10;;;7.70;99.90;;;;;;5041252;28;20044;-80
2022/11/24 02:43:22;;;;;;;24.38;4.30;;;7.70;99.90;;;;;;5012664;28;20046;-81
2022/11/24 02:45:47;;;;;;;23.50;4.28;;;7.70;99.90;;;;;;5016064;28;20069;-79
2022/11/24 02:48:16;;;;;;;19.77;3.83;;;7.70;99.90;;;;;;5018908;28;20045;-80
2022/11/24 02:50:42;;;;;;;23.77;4.30;;;7.70;99.90;;;;;;5021061;28;20458;-79
2022/11/24 02:53:07;;;;;;;20.75;4.00;;;7.70;99.90;;;;;;5018422;28;20045;-80
2022/11/24 02:55:33;;;;;;;16.98;4.13;;;7.80;99.90;;;;;;5020319;28;20585;-79
2022/11/24 02:57:59;;;;;;;24.35;4.32;;;7.80;99.90;;;;;;5027796;28;20041;-80
2022/11/24 03:00:24;;;;;;;18.65;4.30;;;7.80;99.90;;;;;;5027765;28;20033;-79
2022/11/24 03:02:50;;;;;;;22.35;3.80;;;7.80;99.90;;;;;;5026929;28;20087;-79
2022/11/24 03:05:16;;;;;;;21.08;3.58;;;7.80;99.90;;;;;;5020565;28;20048;-80
2022/11/24 03:07:42;;;;;;;17.23;3.92;;;7.80;99.90;;;;;;5020456;28;20046;-80
2022/11/24 03:10:08;;;;;;;21.70;4.25;;;7.80;99.90;;;;;;5017853;28;20118;-80
2022/11/24 03:12:34;;;;;;;24.05;3.92;;;7.80;99.90;;;;;;5025152;28;20516;-80
2022/11/24 03:14:59;;;;;;;17.33;3.97;;;7.80;99.90;;;;;;5017939;28;20088;-79
2022/11/24 03:17:25;;;;;;;19.67;3.97;;;7.80;99.90;;;;;;5030866;28;20043;-79
2022/11/24 03:19:51;;;;;;;23.00;5.18;;;7.90;99.90;;;;;;5020758;28;20092;-79
2022/11/24 03:22:16;;;;;;;18.83;3.88;;;7.80;99.90;;;;;;5015527;28;20044;-79
2022/11/24 03:24:42;;;;;;;19.15;3.90;;;7.80;99.90;;;;;;5018501;28;20096;-79
2022/11/24 03:27:08;;;;;;;20.90;3.65;;;7.80;99.90;;;;;;5008984;28;20038;-80
2022/11/24 03:29:33;;;;;;;19.98;3.90;;;7.50;99.90;;;;;;4999484;28;20041;-78
2022/11/24 03:31:59;;;;;;;21.77;3.75;;;7.80;99.90;;;;;;5015867;28;20060;-80
2022/11/24 03:34:25;;;;;;;25.35;3.83;;;7.70;99.90;;;;;;5018344;28;20512;-80
2022/11/24 03:36:50;;;;;;;21.88;3.80;;;7.80;99.90;;;;;;5018594;28;20073;-80
2022/11/24 03:39:16;;;;;;;14.73;3.08;;;7.70;99.90;;;;;;5014785;28;20072;-80
2022/11/24 03:41:42;;;;;;;16.90;3.35;;;7.70;99.90;;;;;;5038016;28;20509;-79
2022/11/24 03:44:07;;;;;;;23.02;4.07;;;7.70;99.90;;;;;;5027381;28;20386;-79
2022/11/24 03:46:33;;;;;;;19.73;3.53;;;7.70;99.90;;;;;;5031063;28;20056;-79
2022/11/24 03:48:59;;;;;;;18.58;4.18;;;7.70;99.90;;;;;;5013508;28;20060;-79
2022/11/24 03:51:24;;;;;;;24.13;4.13;;;7.70;99.90;;;;;;5028051;28;20059;-79
2022/11/24 03:53:50;;;;;;;17.65;3.38;;;7.70;99.90;;;;;;5012503;28;20482;-77
2022/11/24 03:56:16;;;;;;;19.90;3.47;;;7.70;99.90;;;;;;5034299;28;20040;-79
2022/11/24 03:58:41;;;;;;;19.50;3.60;;;7.70;99.90;;;;;;5004537;28;20045;-79
2022/11/24 04:01:07;;;;;;;19.40;3.80;;;7.60;99.90;;;;;;5014016;28;20044;-79
2022/11/24 04:03:32;;;;;;;18.67;3.28;;;7.60;99.90;;;;;;5020093;28;20409;-79
2022/11/24 04:05:58;;;;;;;19.52;3.55;;;7.60;99.90;;;;;;5021459;28;20176;-78
2022/11/24 04:08:24;;;;;;;16.00;3.03;;;7.60;99.90;;;;;;5019920;28;20042;-78
2022/11/24 04:10:52;;;;;;;18.40;3.20;;;7.60;99.90;;;;;;5030762;28;20052;-79
2022/11/24 04:13:19;;;;;;;19.70;3.80;;;7.60;99.90;;;;;;5025793;28;20393;-80
2022/11/24 04:15:45;;;;;;;18.73;3.38;;;7.60;99.90;;;;;;5020603;28;20398;-80
2022/11/24 04:18:12;;;;;;;19.02;3.42;;;7.60;99.90;;;;;;5001020;28;20037;-79
2022/11/24 04:20:38;;;;;;;18.85;3.40;;;7.60;99.90;;;;;;5000888;28;20524;-79
2022/11/24 04:23:04;;;;;;;21.25;3.95;;;7.70;99.90;;;;;;5028367;28;20038;-80
2022/11/24 04:25:30;;;;;;;17.08;3.72;;;7.70;99.90;;;;;;5016549;28;20119;-80
2022/11/24 04:27:56;;;;;;;18.08;3.17;;;7.70;99.90;;;;;;5024600;28;20042;-80
2022/11/24 04:30:24;;;;;;;16.65;3.17;;;7.70;99.90;;;;;;5035062;28;20468;-79
2022/11/24 04:32:50;;;;;;;15.70;3.35;;;7.70;99.90;;;;;;5002062;28;20085;-80
2022/11/24 04:35:16;;;;;;;16.65;4.43;;;7.70;99.90;;;;;;5001096;28;20124;-80
2022/11/24 04:37:42;;;;;;;13.88;3.53;;;7.70;99.90;;;;;;5028960;28;20121;-80
2022/11/24 04:40:09;;;;;;;19.95;3.65;;;7.70;99.90;;;;;;5021372;28;20036;-80
2022/11/24 04:42:35;;;;;;;15.90;3.00;;;7.70;99.90;;;;;;5025024;28;20402;-80
2022/11/24 04:45:00;;;;;;;21.65;3.65;;;7.70;99.90;;;;;;5026752;28;20143;-79
2022/11/24 04:47:26;;;;;;;13.05;3.55;;;7.70;99.90;;;;;;5016222;28;20033;-80
2022/11/24 04:49:52;;;;;;;15.60;3.58;;;7.60;99.90;;;;;;5016427;28;20045;-80
2022/11/24 04:52:20;;;;;;;13.40;3.00;;;7.70;99.90;;;;;;5010232;28;20064;-79
2022/11/24 04:54:47;;;;;;;15.57;3.70;;;7.70;99.90;;;;;;5030849;28;20056;-79
2022/11/24 04:57:18;;;;;;;12.02;3.30;;;7.60;99.90;;;;;;5014758;28;20444;-80
2022/11/24 04:59:43;;;;;;;21.73;3.55;;;7.60;99.90;;;;;;5032439;28;20060;-80
2022/11/24 05:02:09;;;;;;;18.50;3.20;;;7.60;99.90;;;;;;5018058;28;20033;-80
2022/11/24 05:04:35;;;;;;;19.70;3.53;;;7.60;99.90;;;;;;5016185;28;20457;-80
2022/11/24 05:07:00;;;;;;;13.45;3.40;;;7.60;99.90;;;;;;5005656;28;20052;-79
2022/11/24 05:09:29;;;;;;;15.73;3.10;;;7.50;99.90;;;;;;5023601;28;20037;-79
2022/11/24 05:11:54;;;;;;;12.10;2.78;;;7.50;99.90;;;;;;5000088;28;20033;-80
2022/11/24 05:14:20;;;;;;;18.83;3.65;;;7.50;99.90;;;;;;5003534;28;20064;-80
2022/11/24 05:16:45;;;;;;;21.65;4.80;;;7.50;99.90;;;;;;5020949;28;20045;-81
2022/11/24 05:19:12;;;;;;;12.43;3.00;;;7.40;99.90;;;;;;5024558;28;20041;-81
2022/11/24 05:21:37;;;;;;;18.65;3.90;;;7.40;99.90;;;;;;5038917;28;20094;-81
2022/11/24 05:24:03;;;;;;;18.80;3.70;;;7.60;99.90;;;;;;5025437;28;20195;-79
2022/11/24 05:26:29;;;;;;;18.25;3.38;;;7.40;99.90;;;;;;5010222;28;20038;-80
2022/11/24 05:28:55;;;;;;;26.05;3.97;;;7.40;99.90;;;;;;5026746;28;20129;-80
2022/11/24 05:31:20;;;;;;;15.27;3.22;;;7.40;99.90;;;;;;5022638;28;20029;-80
2022/11/24 05:33:46;;;;;;;18.55;3.47;;;7.30;99.90;;;;;;5038628;28;20053;-80
2022/11/24 05:39:12;;;;;;;21.33;3.50;;;7.20;99.90;;;;;;4978817;28;20130;-80
2022/11/24 05:41:38;;;;;;;19.20;3.60;;;7.20;99.90;;;;;;4997405;28;20131;-81
2022/11/24 05:44:03;;;;;;;15.00;3.67;;;7.20;99.90;;;;;;5042903;28;20030;-82
2022/11/24 05:46:29;;;;;;;17.35;3.35;;;7.20;99.90;;;;;;5014715;28;20116;-82
2022/11/24 05:48:55;;;;;;;16.17;3.25;;;7.10;99.90;;;;;;5015520;28;20042;-82
2022/11/24 05:51:20;;;;;;;19.25;3.88;;;7.10;99.90;;;;;;5026110;28;20040;-81
2022/11/24 05:53:46;;;;;;;12.60;3.55;;;7.10;99.90;;;;;;5027562;28;20037;-81
2022/11/24 05:56:11;;;;;;;19.02;3.75;;;7.10;99.90;;;;;;5016487;28;20084;-81
2022/11/24 05:58:37;;;;;;;16.48;3.60;;;7.00;99.90;;;;;;5004492;28;20063;-82
2022/11/24 06:01:05;;;;;;;14.90;3.30;;;7.00;99.90;;;;;;5025409;28;20037;-83
2022/11/24 06:03:31;;;;;;;13.98;3.03;;;7.00;99.90;;;;;;5036794;28;20034;-83
2022/11/24 06:05:56;;;;;;;22.60;4.03;;;7.00;99.90;;;;;;5016631;28;20041;-82
2022/11/24 06:08:22;;;;;;;15.85;3.83;;;6.90;99.90;;;;;;5027016;28;20110;-82
2022/11/24 06:10:48;;;;;;;21.63;3.88;;;6.90;99.90;;;;;;5003130;28;20059;-81
2022/11/24 06:13:13;;;;;;;15.50;3.53;;;7.00;99.90;;;;;;5028777;28;20040;-82
2022/11/24 06:15:39;;;;;;;13.98;3.42;;;7.00;99.90;;;;;;5030289;28;20037;-82
2022/11/24 06:18:05;;;;;;;19.60;3.80;;;7.00;99.90;;;;;;5016300;28;20038;-81
2022/11/24 06:20:31;;;;;;;17.42;3.78;;;7.10;99.90;;;;;;5012114;28;20032;-82
2022/11/24 06:23:00;;;;;;;12.75;3.58;;;7.10;99.90;;;;;;5011266;28;20046;-82
2022/11/24 06:25:27;;;;;;;16.92;3.92;;;7.00;99.90;;;;;;5009392;28;20057;-82
2022/11/24 06:27:52;;;;;;;20.95;3.60;;;7.10;99.90;;;;;;5032238;28;20029;-82
2022/11/24 06:30:18;;;;;;;21.88;3.88;;;7.10;99.90;;;;;;5006117;28;20028;-81
2022/11/24 06:32:45;;;;;;;21.48;3.88;;;7.30;99.90;;;;;;5005306;28;20040;-82
2022/11/24 06:35:13;;;;;;;15.07;3.72;;;7.20;99.90;;;;;;4999580;28;20040;-81
2022/11/24 06:37:39;;;;;;;20.13;4.10;;;7.20;99.90;;;;;;5014926;28;20079;-82
2022/11/24 06:40:07;;;;;;;16.85;4.50;;;7.30;99.90;;;;;;5020706;28;20037;-83
2022/11/24 06:42:34;;;;;;;16.30;4.40;;;7.30;99.90;;;;;;5016700;28;20037;-83
2022/11/24 06:45:00;;;;;;;21.80;4.05;;;7.40;99.90;;;;;;5015112;28;20079;-83
2022/11/24 06:47:25;;;;;;;25.30;4.25;;;7.40;99.90;;;;;;5014917;28;20124;-83
2022/11/24 06:49:51;;;;;;;23.85;4.78;;;7.40;99.90;;;;;;5015993;28;20049;-83
2022/11/24 06:52:16;;;;;;;17.40;3.85;;;7.50;99.90;;;;;;5015922;28;20045;-81
2022/11/24 06:54:42;;;;;;;15.80;4.07;;;7.50;99.90;;;;;;5022070;28;20068;-82
2022/11/24 06:57:08;;;;;;;18.48;4.03;;;7.50;99.90;;;;;;5017468;28;20481;-83
2022/11/24 06:59:34;;;;;;;15.15;3.90;;;7.50;99.90;;;;;;5013162;28;20040;-82
2022/11/24 07:01:59;;;;;;;17.75;4.55;;;7.60;99.90;;;;;;5024387;28;20049;-83
2022/11/24 07:04:25;;;;;;;23.45;4.70;;;7.60;99.90;;;;;;4999973;28;20087;-83
2022/11/24 07:06:50;;;;;;;19.58;4.68;;;7.60;99.90;;;;;;5030684;28;20029;-83
2022/11/24 07:09:16;;;;;;;19.00;4.55;;;7.60;99.90;;;;;;5025583;28;20036;-82
2022/11/24 07:11:41;;;;;;;22.70;4.82;;;7.70;99.90;;;;;;5024050;28;20563;-82
2022/11/24 07:14:08;;;;;;;20.98;5.18;;;7.70;99.90;;;;;;5004502;28;20064;-81
2022/11/24 07:16:33;;;;;;;21.42;5.30;;;7.70;99.90;;;;;;5003910;28;20096;-81
2022/11/24 07:19:00;;;;;;;22.83;4.65;;;7.70;99.90;;;;;;5004874;28;20073;-82
2022/11/24 07:21:27;;;;;;;19.20;4.50;;;8.00;99.90;;;;;;5013554;28;20109;-82
2022/11/24 07:23:55;;;;;;;19.40;4.63;;;8.30;99.90;;;;;;5012245;28;20033;-81
2022/11/24 07:26:21;;;;;;;17.10;4.82;;;7.70;99.90;;;;;;5023980;28;20540;-81
2022/11/24 07:28:47;;;;;;;19.83;4.80;;;7.70;99.90;;;;;;5017195;28;20433;-80
2022/11/24 07:31:17;;;;;;;22.58;5.22;;;7.70;99.90;;;;;;5034654;28;20037;-81
2022/11/24 07:33:46;;;;;;;14.43;5.15;;;7.70;99.90;;;;;;5025650;28;20124;-80
2022/11/24 07:36:12;;;;;;;20.17;4.97;;;7.70;99.90;;;;;;5033306;28;20045;-78
2022/11/24 07:38:37;;;;;;;13.90;4.65;;;7.70;99.90;;;;;;5011812;28;20038;-81
2022/11/24 07:41:06;;;;;;;19.65;4.90;;;7.70;99.90;;;;;;5028370;28;20037;-81
2022/11/24 07:43:34;;;;;;;20.15;4.95;;;7.70;99.90;;;;;;5030653;28;20048;-80
2022/11/24 07:46:00;;;;;;;24.52;5.10;;;7.70;99.90;;;;;;5010229;28;20045;-81
2022/11/24 07:48:26;;;;;;;22.55;6.45;;;7.70;99.90;;;;;;5043877;28;20048;-81
2022/11/24 07:50:52;;;;;;;15.25;4.78;;;7.70;99.90;;;;;;5008285;28;20041;-81
2022/11/24 07:53:17;;;;;;;15.43;4.72;;;7.70;99.90;;;;;;5013521;28;20041;-81
2022/11/24 07:55:43;;;;;;;19.48;5.30;;;7.90;99.90;;;;;;5033763;28;20033;-81
2022/11/24 07:58:09;;;;;;;17.10;5.05;;;7.70;99.90;;;;;;5028670;28;20039;-81
2022/11/24 08:00:34;;;;;;;17.30;4.45;;;7.70;99.90;;;;;;5013728;28;20040;-81
2022/11/24 08:03:00;;;;;;;23.83;5.32;;;7.70;99.90;;;;;;5023852;28;20928;-80
2022/11/24 08:05:25;;;;;;;16.15;4.40;;;7.70;99.90;;;;;;5020803;28;20078;-79
2022/11/24 08:07:51;;;;;;;15.02;4.90;;;7.70;99.90;;;;;;5028556;28;20041;-80
2022/11/24 08:10:17;;;;;;;15.65;5.25;;;7.70;99.90;;;;;;5005731;28;20045;-80
2022/11/24 08:12:42;;;;;;;17.65;4.82;;;7.70;99.90;;;;;;5039166;28;20044;-78
2022/11/24 08:15:08;;;;;;;19.20;5.28;;;7.70;99.90;;;;;;5020596;28;20037;-80
2022/11/24 08:17:34;;;;;;;15.25;4.70;;;7.80;99.90;;;;;;5026041;28;20048;-80
2022/11/24 08:20:00;;;;;;;14.25;4.07;;;8.10;99.90;;;;;;5020619;28;20675;-81
2022/11/24 08:22:25;;;;;;;17.00;3.40;;;7.70;99.90;;;;;;5010332;28;20041;-79
2022/11/24 08:24:51;;;;;;;22.08;3.70;;;7.80;99.90;;;;;;5019758;28;20036;-78
2022/11/24 08:27:17;;;;;;;14.32;3.15;;;7.80;99.90;;;;;;5021504;28;20532;-80
2022/11/24 08:29:44;;;;;;;9.25;2.92;;;7.70;99.90;;;;;;5016860;28;20040;-80
2022/11/24 08:32:10;;;;;;;14.23;3.30;;;7.70;99.90;;;;;;5020073;28;20421;-80
2022/11/24 08:34:36;;;;;;;9.02;3.33;;;7.70;99.90;;;;;;5016352;28;20120;-77
2022/11/24 08:37:05;;;;;;;9.10;3.15;;;7.70;99.90;;;;;;5026367;28;20076;-80
2022/11/24 08:39:31;;;;;;;8.52;3.33;;;7.70;99.90;;;;;;5025403;28;20041;-80
2022/11/24 08:41:57;;;;;;;11.95;3.30;;;7.60;99.90;;;;;;5005517;28;20044;-80
2022/11/24 08:44:30;;;;;;;10.25;2.85;;;7.60;99.90;;;;;;5040662;22;20049;-81
2022/11/24 08:47:15;;;;;;;10.98;3.15;;;7.70;99.90;;;;;;5042895;28;20505;-81
2022/11/24 08:50:07;;;;;;;9.60;3.03;;;7.60;99.90;;;;;;5040371;28;20455;-81
2022/11/24 08:53:04;;;;;;;7.80;2.65;;;7.70;99.90;;;;;;5043979;28;20107;-81
2022/11/24 09:10:12;;;;;;;10.20;2.78;;;7.80;99.90;;;;;;5005853;28;20061;-81
2022/11/24 09:12:59;;;;;;;8.90;2.80;;;7.90;99.90;;;;;;5004326;28;20038;-80
2022/11/24 09:16:09;;;;;;;9.80;2.35;;;7.90;99.90;;;;;;5010229;28;20041;-80
2022/11/24 09:18:46;;;;;;;;;;;8.60;99.90;;;;;;4989752;28;20112;-80
2022/11/24 09:22:01;;;;;;;8.73;2.80;;;8.00;99.90;;;;;;5009354;28;19968;-81
2022/11/24 09:24:57;;;;;;;9.50;2.90;;;8.00;99.90;;;;;;4996474;28;20077;-81
2022/11/24 09:27:48;;;;;;;5.97;2.72;;;8.10;99.90;;;;;;5006670;28;20046;-81
2022/11/24 09:30:54;;;;;;;6.70;2.78;;;8.00;99.90;;;;;;4993810;28;20037;-81
2022/11/24 09:45:11;;;;;;;10.50;2.75;;;7.90;99.90;;;;;;5039787;28;20555;-80
2022/11/24 09:48:12;;;;;;;7.25;3.33;;;8.00;99.90;;;;;;4918469;29;20187;-80
2022/11/24 09:51:15;;;;;;;7.03;3.22;;;8.00;99.90;;;;;;4921271;28;20045;-80
2022/11/24 09:53:59;;;;;;;9.15;3.40;;;8.20;99.90;;;;;;5008331;28;20075;-80
2022/11/24 09:56:30;;;;;;;7.22;3.70;;;8.30;99.90;;;;;;5005887;28;20165;-80
2022/11/24 09:59:34;;;;;;;7.82;3.53;;;8.40;99.90;;;;;;4997557;28;20042;-80
2022/11/24 10:02:18;;;;;;;7.18;3.42;;;8.40;99.90;;;;;;5008168;28;20046;-80
2022/11/24 10:05:12;;;;;;;8.95;3.88;;;8.50;99.90;;;;;;4990603;28;20547;-80
2022/11/24 10:08:08;;;;;;;7.80;3.85;;;8.60;99.90;;;;;;5006958;28;20052;-80
2022/11/24 10:11:08;;;;;;;9.20;3.97;;;8.70;99.90;;;;;;4987924;28;20057;-80
2022/11/24 10:14:26;;;;;;;7.80;4.25;;;8.60;99.90;;;;;;4989094;28;20481;-80
2022/11/24 10:17:26;;;;;;;10.82;4.03;;;8.70;99.90;;;;;;4991571;28;20089;-80
2022/11/24 10:20:41;;;;;;;13.88;4.22;;;8.60;99.90;;;;;;5008512;28;20040;-80
2022/11/24 10:30:50;;;;;;;10.30;4.40;;;8.80;99.90;;;;;;5013263;28;20080;-79
2022/11/24 10:33:26;;;;;;;14.45;4.75;;;9.70;99.90;;;;;;4999557;28;20128;-79
2022/11/24 10:35:57;;;;;;;10.02;4.78;;;9.00;99.90;;;;;;4995657;28;20482;-79
2022/11/24 10:38:49;;;;;;;9.88;4.18;;;9.00;99.90;;;;;;4999901;28;20034;-79
2022/11/24 10:42:02;;;;;;;8.95;4.55;;;10.00;99.90;;;;;;5002942;28;20034;-80
2022/11/24 10:44:32;;;;;;;12.93;4.80;;;9.10;99.90;;;;;;5018462;28;20042;-79
2022/11/24 10:47:24;;;;;;;12.48;5.18;;;9.10;99.90;;;;;;5008918;28;20406;-79
2022/11/24 10:50:16;;;;;;;12.43;5.20;;;9.20;99.90;;;;;;5003548;28;20073;-80
2022/11/24 10:53:09;;;;;;;9.98;4.72;;;9.20;99.90;;;;;;5011466;28;20065;-80
2022/11/24 10:55:54;;;;;;;14.23;5.63;;;9.30;99.90;;;;;;4989563;28;20104;-80
2022/11/24 10:58:31;;;;;;;13.07;5.20;;;9.30;99.90;;;;;;5011514;28;20038;-80
2022/11/24 11:01:00;;;;;;;11.57;5.10;;;9.40;99.90;;;;;;5002785;28;20117;-79
2022/11/24 11:03:32;;;;;;;10.45;6.00;;;9.40;99.90;;;;;;5006099;28;20481;-80
2022/11/24 11:06:20;;;;;;;10.73;5.07;;;9.40;99.90;;;;;;5021979;28;20038;-79
2022/11/24 11:08:47;;;;;;;15.18;5.40;;;9.50;99.90;;;;;;5000112;28;20033;-79
2022/11/24 11:11:28;;;;;;;13.18;4.75;;;9.50;99.90;;;;;;5021861;28;20124;-80
2022/11/24 11:14:05;;;;;;;17.95;5.25;;;9.60;99.90;;;;;;5011277;28;20104;-80
2022/11/24 11:16:52;;;;;;;14.18;4.43;;;9.60;99.90;;;;;;5011165;28;20041;-79
2022/11/24 11:19:39;;;;;;;16.50;4.70;;;9.70;99.90;;;;;;4991056;28;20038;-80
2022/11/24 11:22:23;;;;;;;15.13;5.18;;;9.70;99.90;;;;;;5014432;28;20041;-80
2022/11/24 11:25:12;;;;;;;9.93;4.38;;;9.70;99.90;;;;;;4992000;28;20038;-79
2022/11/24 11:27:39;;;;;;;12.65;4.70;;;9.80;99.90;;;;;;4996344;28;20144;-79
2022/11/24 11:30:24;;;;;;;15.20;5.00;;;9.90;99.90;;;;;;5022089;28;20128;-80
2022/11/24 11:32:56;;;;;;;15.10;4.85;;;10.00;99.90;;;;;;5005679;28;20048;-80
2022/11/24 11:35:25;;;;;;;12.13;4.65;;;10.60;99.90;;;;;;4992933;28;20124;-80
2022/11/24 11:37:54;;;;;;;12.15;4.05;;;10.10;99.90;;;;;;5005843;28;20440;-79
2022/11/24 11:40:25;;;;;;;12.75;4.10;;;10.50;99.90;;;;;;5001243;28;20041;-79
2022/11/24 11:43:38;;;;;;;14.82;4.50;;;10.40;99.90;;;;;;5017366;28;20038;-79
2022/11/24 11:46:41;;;;;;;12.05;4.47;;;11.30;99.90;;;;;;5026398;28;20048;-81
2022/11/24 11:49:22;;;;;;;9.63;4.10;;;10.50;99.90;;;;;;4994208;28;20140;-80
2022/11/24 11:52:22;;;;;;;10.32;3.67;;;10.60;99.90;;;;;;5004861;28;20046;-80
2022/11/24 11:55:25;;;;;;;15.50;3.83;;;10.70;99.90;;;;;;5003597;28;20515;-79
2022/11/24 11:58:38;;;;;;;10.73;3.63;;;10.70;99.90;;;;;;5012802;28;20041;-79
2022/11/24 12:01:45;;;;;;;11.77;4.10;;;10.80;99.90;;;;;;5029739;28;20050;-79
2022/11/24 12:04:51;;;;;;;10.77;4.05;;;10.80;99.90;;;;;;5014330;28;20041;-80
2022/11/24 12:08:13;;;;;;;10.65;3.70;;;10.80;99.90;;;;;;5008877;28;20030;-80
2022/11/24 12:11:01;;;;;;;15.55;4.63;;;10.90;99.90;;;;;;4997570;28;20049;-80
2022/11/24 12:13:49;;;;;;;10.25;5.05;;;10.90;99.90;;;;;;5027726;28;20063;-79
2022/11/24 12:16:39;;;;;;;14.38;4.70;;;11.00;99.90;;;;;;5025778;28;20046;-79
2022/11/24 12:19:29;;;;;;;12.77;4.57;;;11.00;99.90;;;;;;5021425;28;20049;-80
2022/11/24 12:22:36;;;;;;;14.05;5.15;;;11.30;99.90;;;;;;5030723;28;20045;-79
2022/11/24 12:25:24;;;;;;;14.48;4.43;;;11.10;99.90;;;;;;5016478;28;20605;-80
2022/11/24 12:28:17;;;;;;;15.48;5.43;;;11.20;99.90;;;;;;5005135;28;20056;-80
2022/11/24 12:31:14;;;;;;;14.18;4.72;;;11.20;99.90;;;;;;5001502;28;20046;-80
2022/11/24 12:34:18;;;;;;;17.17;5.20;;;11.30;99.90;;;;;;5021263;28;20098;-81
2022/11/24 12:37:02;;;;;;;14.10;4.75;;;11.40;99.90;;;;;;5036669;28;20045;-80
2022/11/24 12:39:38;;;;;;;14.45;4.80;;;11.60;99.90;;;;;;5001327;28;20042;-80
2022/11/24 12:42:22;;;;;;;14.50;5.07;;;11.90;99.90;;;;;;5010157;28;20042;-81
2022/11/24 12:45:05;;;;;;;13.13;4.90;;;11.70;99.90;;;;;;4991642;28;20061;-81
2022/11/24 12:47:57;;;;;;;17.95;4.78;;;11.80;99.90;;;;;;4997262;28;20040;-81
2022/11/24 12:50:26;;;;;;;;;;;12.10;99.90;;;;;;5000663;28;20049;-82
2022/11/24 12:53:16;;;;;;;15.82;4.55;;;12.20;99.90;;;;;;4989429;28;19940;-81
2022/11/24 12:55:43;;;;;;;13.48;4.50;;;12.00;99.90;;;;;;4990791;28;20108;-81
2022/11/24 12:58:21;;;;;;;15.20;4.15;;;12.10;99.90;;;;;;4991807;28;20050;-81
2022/11/24 13:01:13;;;;;;;17.95;4.40;;;12.00;99.90;;;;;;5004507;28;20045;-80
2022/11/24 13:04:01;;;;;;;12.85;4.28;;;11.80;99.90;;;;;;5005105;28;20395;-81
2022/11/24 13:06:36;;;;;;;14.80;4.30;;;11.60;99.90;;;;;;5004540;28;20041;-81
2022/11/24 13:09:12;;;;;;;14.50;4.10;;;11.60;99.90;;;;;;5007319;28;20045;-80
2022/11/24 13:11:44;;;;;;;14.45;4.07;;;12.00;99.90;;;;;;4992749;28;20096;-80
2022/11/24 13:14:29;;;;;;;20.60;4.68;;;12.70;99.90;;;;;;5002204;28;20062;-81
2022/11/24 13:17:02;;;;;;;13.27;4.38;;;11.90;99.90;;;;;;5034226;28;20059;-81
2022/11/24 13:19:35;;;;;;;17.35;5.28;;;12.10;99.90;;;;;;5019227;28;20033;-80
2022/11/24 13:22:07;;;;;;;15.85;4.28;;;12.30;99.90;;;;;;5016818;28;20045;-80
2022/11/24 13:24:38;;;;;;;18.48;3.78;;;12.50;99.90;;;;;;4999432;28;20038;-81
2022/11/24 13:27:15;;;;;;;14.55;4.20;;;13.30;99.90;;;;;;5013176;28;20594;-81
2022/11/24 13:29:47;;;;;;;15.52;3.53;;;13.10;99.90;;;;;;5018735;28;20042;-81
2022/11/24 13:32:19;;;;;;;13.23;3.35;;;12.80;99.90;;;;;;5012982;28;20115;-81
2022/11/24 13:34:53;;;;;;;11.20;3.65;;;12.50;99.90;;;;;;5018328;28;20050;-81
2022/11/24 13:37:22;;;;;;;18.23;3.83;;;12.30;99.90;;;;;;5003304;28;20072;-81
2022/11/24 13:39:47;;;;;;;18.05;4.15;;;12.50;99.90;;;;;;5006518;28;20037;-81
2022/11/24 13:42:13;;;;;;;12.48;3.05;;;12.50;99.90;;;;;;5011700;28;20555;-80
2022/11/24 13:44:48;;;;;;;15.55;3.60;;;12.80;99.90;;;;;;5022120;28;20057;-80
2022/11/24 13:47:34;;;;;;;15.25;3.78;;;13.50;99.90;;;;;;5001200;28;20038;-81
2022/11/24 13:50:02;;;;;;;14.02;3.38;;;13.40;99.90;;;;;;5016232;28;20120;-81
2022/11/24 13:52:48;;;;;;;16.95;3.92;;;13.50;99.90;;;;;;4996456;28;20612;-81